sensor_id;sensor_type;location;lat;lon;timestamp;temperature;humidity
42615;DHT22;28754;47.700;7.924;2023-09-30T00:01:12;17.20;99.90
42615;DHT22;28754;47.700;7.924;2023-09-30T00:04:00;17.30;99.90
42615;DHT22;28754;47.700;7.924;2023-09-30T00:06:49;17.40;99.90
42615;DHT22;28754;47.700;7.924;2023-09-30T00:09:35;17.40;99.90
42615;DHT22;28754;47.700;7.924;2023-09-30T00:12:22;17.40;99.90
42615;DHT22;28754;47.700;7.924;2023-09-30T00:15:09;17.20;99.90
42615;DHT22;28754;47.700;7.924;2023-09-30T00:17:56;17.30;99.90
42615;DHT22;28754;47.700;7.924;2023-09-30T00:20:43;17.30;99.90
42615;DHT22;28754;47.700;7.924;2023-09-30T00:23:29;17.20;99.90
42615;DHT22;28754;47.700;7.924;2023-09-30T00:26:16;17.20;99.90
42615;DHT22;28754;47.700;7.924;2023-09-30T00:29:06;16.90;99.90
42615;DHT22;28754;47.700;7.924;2023-09-30T00:31:53;16.90;99.90
42615;DHT22;28754;47.700;7.924;2023-09-30T00:34:39;17.00;99.90
42615;DHT22;28754;47.700;7.924;2023-09-30T00:37:26;17.10;99.90
42615;DHT22;28754;47.700;7.924;2023-09-30T00:40:13;17.10;99.90
42615;DHT22;28754;47.700;7.924;2023-09-30T00:43:00;17.10;99.90
42615;DHT22;28754;47.700;7.924;2023-09-30T00:46:13;17.20;99.90
42615;DHT22;28754;47.700;7.924;2023-09-30T00:49:01;17.10;99.90
42615;DHT22;28754;47.700;7.924;2023-09-30T00:51:49;16.60;99.90
42615;DHT22;28754;47.700;7.924;2023-09-30T00:54:37;16.40;99.90
42615;DHT22;28754;47.700;7.924;2023-09-30T00:57:25;16.50;99.90
42615;DHT22;28754;47.700;7.924;2023-09-30T01:00:14;16.60;99.90
42615;DHT22;28754;47.700;7.924;2023-09-30T01:03:04;16.70;99.90
42615;DHT22;28754;47.700;7.924;2023-09-30T01:05:51;16.90;99.90
42615;DHT22;28754;47.700;7.924;2023-09-30T01:08:38;16.70;99.90
42615;DHT22;28754;47.700;7.924;2023-09-30T01:11:25;16.60;99.90
42615;DHT22;28754;47.700;7.924;2023-09-30T01:14:32;16.70;99.90
42615;DHT22;28754;47.700;7.924;2023-09-30T01:17:24;16.90;99.90
42615;DHT22;28754;47.700;7.924;2023-09-30T01:20:14;16.80;99.90
42615;DHT22;28754;47.700;7.924;2023-09-30T01:23:06;16.90;99.90
42615;DHT22;28754;47.700;7.924;2023-09-30T01:25:52;16.80;99.90
42615;DHT22;28754;47.700;7.924;2023-09-30T01:28:40;16.90;99.90
42615;DHT22;28754;47.700;7.924;2023-09-30T01:31:27;16.90;99.90
42615;DHT22;28754;47.700;7.924;2023-09-30T01:34:14;16.60;99.90
42615;DHT22;28754;47.700;7.924;2023-09-30T01:37:04;16.80;99.90
42615;DHT22;28754;47.700;7.924;2023-09-30T01:39:51;16.90;99.90
42615;DHT22;28754;47.700;7.924;2023-09-30T01:42:41;16.90;99.90
42615;DHT22;28754;47.700;7.924;2023-09-30T01:45:27;17.00;99.90
42615;DHT22;28754;47.700;7.924;2023-09-30T01:48:14;17.00;99.90
42615;DHT22;28754;47.700;7.924;2023-09-30T01:51:01;16.80;99.90
42615;DHT22;28754;47.700;7.924;2023-09-30T01:53:48;16.90;99.90
42615;DHT22;28754;47.700;7.924;2023-09-30T01:56:37;17.10;99.90
42615;DHT22;28754;47.700;7.924;2023-09-30T01:59:24;17.10;99.90
42615;DHT22;28754;47.700;7.924;2023-09-30T02:02:11;16.90;99.90
42615;DHT22;28754;47.700;7.924;2023-09-30T02:04:57;16.50;99.90
42615;DHT22;28754;47.700;7.924;2023-09-30T02:07:44;16.80;99.90
42615;DHT22;28754;47.700;7.924;2023-09-30T02:10:32;17.00;99.90
42615;DHT22;28754;47.700;7.924;2023-09-30T02:13:22;17.00;99.90
42615;DHT22;28754;47.700;7.924;2023-09-30T02:16:12;17.10;99.90
42615;DHT22;28754;47.700;7.924;2023-09-30T02:19:00;17.10;99.90
42615;DHT22;28754;47.700;7.924;2023-09-30T02:21:47;17.20;99.90
42615;DHT22;28754;47.700;7.924;2023-09-30T02:24:34;17.10;99.90
42615;DHT22;28754;47.700;7.924;2023-09-30T02:27:21;16.80;99.90
42615;DHT22;28754;47.700;7.924;2023-09-30T02:30:11;16.50;99.90
42615;DHT22;28754;47.700;7.924;2023-09-30T02:33:00;16.70;99.90
42615;DHT22;28754;47.700;7.924;2023-09-30T02:35:46;16.90;99.90
42615;DHT22;28754;47.700;7.924;2023-09-30T02:38:33;16.90;99.90
42615;DHT22;28754;47.700;7.924;2023-09-30T02:41:22;17.00;99.90
42615;DHT22;28754;47.700;7.924;2023-09-30T02:44:09;17.00;99.90
42615;DHT22;28754;47.700;7.924;2023-09-30T02:46:55;17.10;99.90
42615;DHT22;28754;47.700;7.924;2023-09-30T02:49:42;17.20;99.90
42615;DHT22;28754;47.700;7.924;2023-09-30T02:52:29;17.20;99.90
42615;DHT22;28754;47.700;7.924;2023-09-30T02:55:15;17.20;99.90
42615;DHT22;28754;47.700;7.924;2023-09-30T02:58:04;17.10;99.90
42615;DHT22;28754;47.700;7.924;2023-09-30T03:00:51;17.00;99.90
42615;DHT22;28754;47.700;7.924;2023-09-30T03:03:37;16.90;99.90
42615;DHT22;28754;47.700;7.924;2023-09-30T03:06:25;17.00;99.90
42615;DHT22;28754;47.700;7.924;2023-09-30T03:09:11;16.90;99.90
42615;DHT22;28754;47.700;7.924;2023-09-30T03:12:02;16.80;99.90
42615;DHT22;28754;47.700;7.924;2023-09-30T03:14:50;17.00;99.90
42615;DHT22;28754;47.700;7.924;2023-09-30T03:17:37;17.00;99.90
42615;DHT22;28754;47.700;7.924;2023-09-30T03:20:24;17.10;99.90
42615;DHT22;28754;47.700;7.924;2023-09-30T03:23:11;17.10;99.90
42615;DHT22;28754;47.700;7.924;2023-09-30T03:26:00;17.10;99.90
42615;DHT22;28754;47.700;7.924;2023-09-30T03:28:47;17.20;99.90
42615;DHT22;28754;47.700;7.924;2023-09-30T03:31:33;16.90;99.90
42615;DHT22;28754;47.700;7.924;2023-09-30T03:34:20;16.40;99.90
42615;DHT22;28754;47.700;7.924;2023-09-30T03:37:06;16.40;99.90
42615;DHT22;28754;47.700;7.924;2023-09-30T03:39:54;16.70;99.90
42615;DHT22;28754;47.700;7.924;2023-09-30T03:42:41;16.90;99.90
42615;DHT22;28754;47.700;7.924;2023-09-30T03:45:31;17.00;99.90
42615;DHT22;28754;47.700;7.924;2023-09-30T03:48:21;17.10;99.90
42615;DHT22;28754;47.700;7.924;2023-09-30T03:51:12;17.00;99.90
42615;DHT22;28754;47.700;7.924;2023-09-30T03:54:00;17.00;99.90
42615;DHT22;28754;47.700;7.924;2023-09-30T03:56:49;17.00;99.90
42615;DHT22;28754;47.700;7.924;2023-09-30T03:59:35;17.00;99.90
42615;DHT22;28754;47.700;7.924;2023-09-30T04:02:22;16.80;99.90
42615;DHT22;28754;47.700;7.924;2023-09-30T04:05:09;16.60;99.90
42615;DHT22;28754;47.700;7.924;2023-09-30T04:07:58;16.60;99.90
42615;DHT22;28754;47.700;7.924;2023-09-30T04:10:45;16.50;99.90
42615;DHT22;28754;47.700;7.924;2023-09-30T04:13:32;16.30;99.90
42615;DHT22;28754;47.700;7.924;2023-09-30T04:16:19;16.30;99.90
42615;DHT22;28754;47.700;7.924;2023-09-30T04:19:06;16.50;99.90
42615;DHT22;28754;47.700;7.924;2023-09-30T04:21:54;16.70;99.90
42615;DHT22;28754;47.700;7.924;2023-09-30T04:24:41;16.70;99.90
42615;DHT22;28754;47.700;7.924;2023-09-30T04:27:27;16.70;99.90
42615;DHT22;28754;47.700;7.924;2023-09-30T04:30:14;16.70;99.90
42615;DHT22;28754;47.700;7.924;2023-09-30T04:33:01;16.60;99.90
42615;DHT22;28754;47.700;7.924;2023-09-30T04:35:51;16.40;99.90
42615;DHT22;28754;47.700;7.924;2023-09-30T04:38:37;16.40;99.90
42615;DHT22;28754;47.700;7.924;2023-09-30T04:41:24;16.50;99.90
42615;DHT22;28754;47.700;7.924;2023-09-30T04:44:11;16.60;99.90
42615;DHT22;28754;47.700;7.924;2023-09-30T04:46:58;16.50;99.90
42615;DHT22;28754;47.700;7.924;2023-09-30T04:49:45;16.10;99.90
42615;DHT22;28754;47.700;7.924;2023-09-30T04:52:32;16.00;99.90
42615;DHT22;28754;47.700;7.924;2023-09-30T04:55:19;16.30;99.90
42615;DHT22;28754;47.700;7.924;2023-09-30T04:58:06;16.20;99.90
42615;DHT22;28754;47.700;7.924;2023-09-30T05:00:53;16.20;99.90
42615;DHT22;28754;47.700;7.924;2023-09-30T05:03:39;16.40;99.90
42615;DHT22;28754;47.700;7.924;2023-09-30T05:06:26;16.50;99.90
42615;DHT22;28754;47.700;7.924;2023-09-30T05:09:13;16.30;99.90
42615;DHT22;28754;47.700;7.924;2023-09-30T05:11:59;16.10;99.90
42615;DHT22;28754;47.700;7.924;2023-09-30T05:14:46;16.30;99.90
42615;DHT22;28754;47.700;7.924;2023-09-30T05:17:33;16.20;99.90
42615;DHT22;28754;47.700;7.924;2023-09-30T05:20:19;16.20;99.90
42615;DHT22;28754;47.700;7.924;2023-09-30T05:23:06;16.40;99.90
42615;DHT22;28754;47.700;7.924;2023-09-30T05:25:53;16.50;99.90
42615;DHT22;28754;47.700;7.924;2023-09-30T05:28:40;16.50;99.90
42615;DHT22;28754;47.700;7.924;2023-09-30T05:31:26;16.60;99.90
42615;DHT22;28754;47.700;7.924;2023-09-30T05:34:13;16.60;99.90
42615;DHT22;28754;47.700;7.924;2023-09-30T05:37:00;16.60;99.90
42615;DHT22;28754;47.700;7.924;2023-09-30T05:39:48;16.60;99.90
42615;DHT22;28754;47.700;7.924;2023-09-30T05:42:37;16.50;99.90
42615;DHT22;28754;47.700;7.924;2023-09-30T05:45:24;16.30;99.90
42615;DHT22;28754;47.700;7.924;2023-09-30T05:48:12;16.30;99.90
42615;DHT22;28754;47.700;7.924;2023-09-30T05:50:59;16.20;99.90
42615;DHT22;28754;47.700;7.924;2023-09-30T05:53:45;16.40;99.90
42615;DHT22;28754;47.700;7.924;2023-09-30T05:56:36;16.50;99.90
42615;DHT22;28754;47.700;7.924;2023-09-30T05:59:24;16.60;99.90
42615;DHT22;28754;47.700;7.924;2023-09-30T06:02:11;16.60;99.90
42615;DHT22;28754;47.700;7.924;2023-09-30T06:04:58;16.70;99.90
42615;DHT22;28754;47.700;7.924;2023-09-30T06:07:47;16.80;99.90
42615;DHT22;28754;47.700;7.924;2023-09-30T06:10:34;16.80;99.90
42615;DHT22;28754;47.700;7.924;2023-09-30T06:13:21;16.90;99.90
42615;DHT22;28754;47.700;7.924;2023-09-30T06:16:08;17.00;99.90
42615;DHT22;28754;47.700;7.924;2023-09-30T06:18:57;16.50;99.90
42615;DHT22;28754;47.700;7.924;2023-09-30T06:21:44;16.00;99.90
42615;DHT22;28754;47.700;7.924;2023-09-30T06:24:30;16.10;99.90
42615;DHT22;28754;47.700;7.924;2023-09-30T06:27:17;16.40;99.90
42615;DHT22;28754;47.700;7.924;2023-09-30T06:30:05;16.70;99.90
42615;DHT22;28754;47.700;7.924;2023-09-30T06:32:52;16.80;99.90
42615;DHT22;28754;47.700;7.924;2023-09-30T06:35:41;17.00;99.90
42615;DHT22;28754;47.700;7.924;2023-09-30T06:38:36;17.30;99.90
42615;DHT22;28754;47.700;7.924;2023-09-30T06:41:24;17.40;99.90
42615;DHT22;28754;47.700;7.924;2023-09-30T06:44:12;17.50;99.90
42615;DHT22;28754;47.700;7.924;2023-09-30T06:46:59;17.40;99.90
42615;DHT22;28754;47.700;7.924;2023-09-30T06:49:47;17.40;99.90
42615;DHT22;28754;47.700;7.924;2023-09-30T06:52:34;17.20;99.90
42615;DHT22;28754;47.700;7.924;2023-09-30T06:55:22;17.70;99.90
42615;DHT22;28754;47.700;7.924;2023-09-30T06:58:09;18.10;99.90
42615;DHT22;28754;47.700;7.924;2023-09-30T07:00:57;18.70;99.90
42615;DHT22;28754;47.700;7.924;2023-09-30T07:03:44;18.60;99.90
42615;DHT22;28754;47.700;7.924;2023-09-30T07:06:30;18.90;99.90
42615;DHT22;28754;47.700;7.924;2023-09-30T07:09:17;18.80;99.90
42615;DHT22;28754;47.700;7.924;2023-09-30T07:12:06;19.50;99.90
42615;DHT22;28754;47.700;7.924;2023-09-30T07:14:53;19.30;99.90
42615;DHT22;28754;47.700;7.924;2023-09-30T07:17:40;19.20;99.90
42615;DHT22;28754;47.700;7.924;2023-09-30T07:20:26;18.80;99.90
42615;DHT22;28754;47.700;7.924;2023-09-30T07:23:14;18.80;99.90
42615;DHT22;28754;47.700;7.924;2023-09-30T07:26:01;18.60;99.90
42615;DHT22;28754;47.700;7.924;2023-09-30T07:28:47;18.60;99.90
42615;DHT22;28754;47.700;7.924;2023-09-30T07:31:35;18.50;99.90
42615;DHT22;28754;47.700;7.924;2023-09-30T07:34:22;18.50;99.90
42615;DHT22;28754;47.700;7.924;2023-09-30T07:37:09;18.60;99.90
42615;DHT22;28754;47.700;7.924;2023-09-30T07:39:55;18.70;99.90
42615;DHT22;28754;47.700;7.924;2023-09-30T07:42:42;18.70;99.90
42615;DHT22;28754;47.700;7.924;2023-09-30T07:45:29;18.60;99.90
42615;DHT22;28754;47.700;7.924;2023-09-30T07:48:15;18.60;99.90
42615;DHT22;28754;47.700;7.924;2023-09-30T07:51:02;19.20;99.90
42615;DHT22;28754;47.700;7.924;2023-09-30T07:53:49;19.90;99.90
42615;DHT22;28754;47.700;7.924;2023-09-30T07:56:37;20.20;99.90
42615;DHT22;28754;47.700;7.924;2023-09-30T07:59:23;20.50;99.90
42615;DHT22;28754;47.700;7.924;2023-09-30T08:02:10;22.00;99.90
42615;DHT22;28754;47.700;7.924;2023-09-30T08:04:57;21.60;99.90
42615;DHT22;28754;47.700;7.924;2023-09-30T08:07:43;21.70;99.90
42615;DHT22;28754;47.700;7.924;2023-09-30T08:10:32;21.70;99.90
42615;DHT22;28754;47.700;7.924;2023-09-30T08:13:19;21.70;99.90
42615;DHT22;28754;47.700;7.924;2023-09-30T08:16:05;21.40;99.90
42615;DHT22;28754;47.700;7.924;2023-09-30T08:18:53;21.50;99.90
42615;DHT22;28754;47.700;7.924;2023-09-30T08:21:40;21.80;99.90
42615;DHT22;28754;47.700;7.924;2023-09-30T08:24:31;21.60;99.90
42615;DHT22;28754;47.700;7.924;2023-09-30T08:27:18;21.60;99.90
42615;DHT22;28754;47.700;7.924;2023-09-30T08:30:05;23.20;99.90
42615;DHT22;28754;47.700;7.924;2023-09-30T08:32:52;22.90;99.90
42615;DHT22;28754;47.700;7.924;2023-09-30T08:35:39;22.30;99.90
42615;DHT22;28754;47.700;7.924;2023-09-30T08:38:26;21.10;99.90
42615;DHT22;28754;47.700;7.924;2023-09-30T08:41:31;20.90;99.90
42615;DHT22;28754;47.700;7.924;2023-09-30T08:44:18;21.40;99.90
42615;DHT22;28754;47.700;7.924;2023-09-30T08:47:06;21.60;99.90
42615;DHT22;28754;47.700;7.924;2023-09-30T08:49:59;23.20;99.90
42615;DHT22;28754;47.700;7.924;2023-09-30T08:52:52;23.20;99.90
42615;DHT22;28754;47.700;7.924;2023-09-30T08:55:39;23.30;99.90
42615;DHT22;28754;47.700;7.924;2023-09-30T08:58:29;23.40;99.90
42615;DHT22;28754;47.700;7.924;2023-09-30T09:01:17;23.80;99.90
42615;DHT22;28754;47.700;7.924;2023-09-30T09:04:04;22.30;99.90
42615;DHT22;28754;47.700;7.924;2023-09-30T09:06:53;21.70;99.90
42615;DHT22;28754;47.700;7.924;2023-09-30T09:10:06;21.10;99.90
42615;DHT22;28754;47.700;7.924;2023-09-30T09:12:58;20.00;99.90
42615;DHT22;28754;47.700;7.924;2023-09-30T09:15:45;20.00;99.90
42615;DHT22;28754;47.700;7.924;2023-09-30T09:18:32;19.50;99.90
42615;DHT22;28754;47.700;7.924;2023-09-30T09:21:21;19.30;99.90
42615;DHT22;28754;47.700;7.924;2023-09-30T09:24:30;19.50;99.90
42615;DHT22;28754;47.700;7.924;2023-09-30T09:27:17;19.80;99.90
42615;DHT22;28754;47.700;7.924;2023-09-30T09:33:07;20.80;99.90
42615;DHT22;28754;47.700;7.924;2023-09-30T09:35:54;21.50;99.90
42615;DHT22;28754;47.700;7.924;2023-09-30T09:38:53;23.50;99.90
42615;DHT22;28754;47.700;7.924;2023-09-30T09:41:53;25.30;99.90
42615;DHT22;28754;47.700;7.924;2023-09-30T09:44:42;25.60;99.90
42615;DHT22;28754;47.700;7.924;2023-09-30T09:47:33;25.00;99.90
42615;DHT22;28754;47.700;7.924;2023-09-30T09:50:21;25.00;99.90
42615;DHT22;28754;47.700;7.924;2023-09-30T09:53:09;24.50;99.90
42615;DHT22;28754;47.700;7.924;2023-09-30T09:55:57;24.40;99.90
42615;DHT22;28754;47.700;7.924;2023-09-30T09:58:47;24.10;99.90
42615;DHT22;28754;47.700;7.924;2023-09-30T10:01:36;26.40;99.90
42615;DHT22;28754;47.700;7.924;2023-09-30T10:04:23;26.90;99.90
42615;DHT22;28754;47.700;7.924;2023-09-30T10:07:21;26.20;99.90
42615;DHT22;28754;47.700;7.924;2023-09-30T10:10:16;26.20;99.90
42615;DHT22;28754;47.700;7.924;2023-09-30T10:13:04;25.80;99.90
42615;DHT22;28754;47.700;7.924;2023-09-30T10:15:52;26.10;99.90
42615;DHT22;28754;47.700;7.924;2023-09-30T10:19:14;26.50;99.90
42615;DHT22;28754;47.700;7.924;2023-09-30T10:25:34;28.60;99.90
42615;DHT22;28754;47.700;7.924;2023-09-30T10:28:37;28.20;99.90
42615;DHT22;28754;47.700;7.924;2023-09-30T10:31:27;25.80;99.90
42615;DHT22;28754;47.700;7.924;2023-09-30T10:34:20;25.20;99.90
42615;DHT22;28754;47.700;7.924;2023-09-30T10:37:23;24.90;99.90
42615;DHT22;28754;47.700;7.924;2023-09-30T10:40:31;23.40;99.90
42615;DHT22;28754;47.700;7.924;2023-09-30T10:43:35;22.00;99.90
42615;DHT22;28754;47.700;7.924;2023-09-30T10:52:09;23.40;99.90
42615;DHT22;28754;47.700;7.924;2023-09-30T10:55:02;23.20;99.90
42615;DHT22;28754;47.700;7.924;2023-09-30T10:57:51;23.40;99.90
42615;DHT22;28754;47.700;7.924;2023-09-30T11:00:38;23.00;99.90
42615;DHT22;28754;47.700;7.924;2023-09-30T11:03:25;23.00;99.90
42615;DHT22;28754;47.700;7.924;2023-09-30T11:06:13;24.40;99.90
42615;DHT22;28754;47.700;7.924;2023-09-30T11:09:03;24.90;99.90
42615;DHT22;28754;47.700;7.924;2023-09-30T11:11:52;23.50;99.90
42615;DHT22;28754;47.700;7.924;2023-09-30T11:14:40;23.90;99.90
42615;DHT22;28754;47.700;7.924;2023-09-30T11:17:27;24.80;99.90
42615;DHT22;28754;47.700;7.924;2023-09-30T11:20:13;23.90;99.90
42615;DHT22;28754;47.700;7.924;2023-09-30T11:23:03;24.80;99.90
42615;DHT22;28754;47.700;7.924;2023-09-30T11:25:50;24.00;99.90
42615;DHT22;28754;47.700;7.924;2023-09-30T11:28:39;23.00;99.90
42615;DHT22;28754;47.700;7.924;2023-09-30T11:31:28;23.10;99.90
42615;DHT22;28754;47.700;7.924;2023-09-30T11:34:19;23.80;99.90
42615;DHT22;28754;47.700;7.924;2023-09-30T11:37:18;22.70;99.90
42615;DHT22;28754;47.700;7.924;2023-09-30T11:40:10;22.00;99.90
42615;DHT22;28754;47.700;7.924;2023-09-30T11:43:08;22.60;99.90
42615;DHT22;28754;47.700;7.924;2023-09-30T11:46:09;22.50;99.90
42615;DHT22;28754;47.700;7.924;2023-09-30T11:49:04;22.80;99.90
42615;DHT22;28754;47.700;7.924;2023-09-30T11:51:56;24.10;99.90
42615;DHT22;28754;47.700;7.924;2023-09-30T11:54:47;23.80;99.90
42615;DHT22;28754;47.700;7.924;2023-09-30T11:57:33;23.80;99.90
42615;DHT22;28754;47.700;7.924;2023-09-30T12:00:21;22.90;99.90
42615;DHT22;28754;47.700;7.924;2023-09-30T12:03:07;21.70;99.90
42615;DHT22;28754;47.700;7.924;2023-09-30T12:05:54;21.90;99.90
42615;DHT22;28754;47.700;7.924;2023-09-30T12:08:44;22.30;99.90
42615;DHT22;28754;47.700;7.924;2023-09-30T12:11:31;21.90;99.90
42615;DHT22;28754;47.700;7.924;2023-09-30T12:14:18;23.10;99.90
42615;DHT22;28754;47.700;7.924;2023-09-30T12:17:04;23.40;99.90
42615;DHT22;28754;47.700;7.924;2023-09-30T12:19:51;23.30;99.90
42615;DHT22;28754;47.700;7.924;2023-09-30T12:22:38;23.20;99.90
42615;DHT22;28754;47.700;7.924;2023-09-30T12:25:24;23.20;99.90
42615;DHT22;28754;47.700;7.924;2023-09-30T12:28:11;24.20;99.90
42615;DHT22;28754;47.700;7.924;2023-09-30T12:31:01;24.30;99.90
42615;DHT22;28754;47.700;7.924;2023-09-30T12:33:51;25.50;99.90
42615;DHT22;28754;47.700;7.924;2023-09-30T12:36:39;26.00;99.90
42615;DHT22;28754;47.700;7.924;2023-09-30T12:39:26;26.20;99.90
42615;DHT22;28754;47.700;7.924;2023-09-30T12:42:16;26.10;99.90
42615;DHT22;28754;47.700;7.924;2023-09-30T12:45:03;26.00;99.90
42615;DHT22;28754;47.700;7.924;2023-09-30T12:47:51;25.60;99.90
42615;DHT22;28754;47.700;7.924;2023-09-30T12:50:41;26.20;99.90
42615;DHT22;28754;47.700;7.924;2023-09-30T12:53:28;25.90;99.90
42615;DHT22;28754;47.700;7.924;2023-09-30T12:56:14;25.50;99.90
42615;DHT22;28754;47.700;7.924;2023-09-30T12:59:01;26.40;99.90
42615;DHT22;28754;47.700;7.924;2023-09-30T13:01:49;26.80;99.90
42615;DHT22;28754;47.700;7.924;2023-09-30T13:04:36;26.80;99.90
42615;DHT22;28754;47.700;7.924;2023-09-30T13:07:24;26.20;99.90
42615;DHT22;28754;47.700;7.924;2023-09-30T13:10:11;26.50;99.90
42615;DHT22;28754;47.700;7.924;2023-09-30T13:12:59;26.70;99.90
42615;DHT22;28754;47.700;7.924;2023-09-30T13:15:45;26.70;99.90
42615;DHT22;28754;47.700;7.924;2023-09-30T13:18:32;25.80;99.90
42615;DHT22;28754;47.700;7.924;2023-09-30T13:21:19;26.10;99.90
42615;DHT22;28754;47.700;7.924;2023-09-30T13:24:06;26.00;99.90
42615;DHT22;28754;47.700;7.924;2023-09-30T13:26:56;26.40;99.90
42615;DHT22;28754;47.700;7.924;2023-09-30T13:29:43;26.30;99.90
42615;DHT22;28754;47.700;7.924;2023-09-30T13:32:31;25.80;99.90
42615;DHT22;28754;47.700;7.924;2023-09-30T13:35:19;27.70;99.90
42615;DHT22;28754;47.700;7.924;2023-09-30T13:38:06;28.00;99.90
42615;DHT22;28754;47.700;7.924;2023-09-30T13:40:52;28.20;99.90
42615;DHT22;28754;47.700;7.924;2023-09-30T13:43:39;27.40;99.90
42615;DHT22;28754;47.700;7.924;2023-09-30T13:46:26;26.80;99.90
42615;DHT22;28754;47.700;7.924;2023-09-30T13:49:14;26.00;99.90
42615;DHT22;28754;47.700;7.924;2023-09-30T13:52:01;25.00;99.90
42615;DHT22;28754;47.700;7.924;2023-09-30T13:54:48;25.20;99.90
42615;DHT22;28754;47.700;7.924;2023-09-30T13:57:34;24.80;99.90
42615;DHT22;28754;47.700;7.924;2023-09-30T14:00:21;24.10;99.90
42615;DHT22;28754;47.700;7.924;2023-09-30T14:03:08;23.30;99.90
42615;DHT22;28754;47.700;7.924;2023-09-30T14:05:56;23.00;99.90
42615;DHT22;28754;47.700;7.924;2023-09-30T14:08:43;23.10;99.90
42615;DHT22;28754;47.700;7.924;2023-09-30T14:11:30;23.00;99.90
42615;DHT22;28754;47.700;7.924;2023-09-30T14:14:17;23.10;99.90
42615;DHT22;28754;47.700;7.924;2023-09-30T14:17:03;23.00;99.90
42615;DHT22;28754;47.700;7.924;2023-09-30T14:19:54;22.90;99.90
42615;DHT22;28754;47.700;7.924;2023-09-30T14:22:41;22.40;99.90
42615;DHT22;28754;47.700;7.924;2023-09-30T14:25:27;22.40;99.90
42615;DHT22;28754;47.700;7.924;2023-09-30T14:28:14;22.40;99.90
42615;DHT22;28754;47.700;7.924;2023-09-30T14:31:03;22.40;99.90
42615;DHT22;28754;47.700;7.924;2023-09-30T14:33:50;22.30;99.90
42615;DHT22;28754;47.700;7.924;2023-09-30T14:36:37;22.30;99.90
42615;DHT22;28754;47.700;7.924;2023-09-30T14:39:24;23.10;99.90
42615;DHT22;28754;47.700;7.924;2023-09-30T14:42:10;23.00;99.90
42615;DHT22;28754;47.700;7.924;2023-09-30T14:44:57;23.10;99.90
42615;DHT22;28754;47.700;7.924;2023-09-30T14:47:44;22.60;99.90
42615;DHT22;28754;47.700;7.924;2023-09-30T14:50:31;22.70;99.90
42615;DHT22;28754;47.700;7.924;2023-09-30T14:53:17;22.60;99.90
42615;DHT22;28754;47.700;7.924;2023-09-30T14:56:15;22.90;99.90
42615;DHT22;28754;47.700;7.924;2023-09-30T14:59:03;23.00;99.90
42615;DHT22;28754;47.700;7.924;2023-09-30T15:01:50;23.60;99.90
42615;DHT22;28754;47.700;7.924;2023-09-30T15:04:39;23.10;99.90
42615;DHT22;28754;47.700;7.924;2023-09-30T15:07:26;23.30;99.90
42615;DHT22;28754;47.700;7.924;2023-09-30T15:10:12;23.20;99.90
42615;DHT22;28754;47.700;7.924;2023-09-30T15:12:59;22.30;99.90
42615;DHT22;28754;47.700;7.924;2023-09-30T15:15:46;22.10;99.90
42615;DHT22;28754;47.700;7.924;2023-09-30T15:18:33;21.90;99.90
42615;DHT22;28754;47.700;7.924;2023-09-30T15:21:19;22.20;99.90
42615;DHT22;28754;47.700;7.924;2023-09-30T15:24:07;22.10;99.90
42615;DHT22;28754;47.700;7.924;2023-09-30T15:26:54;22.30;99.90
42615;DHT22;28754;47.700;7.924;2023-09-30T15:29:42;21.80;99.90
42615;DHT22;28754;47.700;7.924;2023-09-30T15:32:30;21.90;99.90
42615;DHT22;28754;47.700;7.924;2023-09-30T15:35:17;21.60;99.90
42615;DHT22;28754;47.700;7.924;2023-09-30T15:38:04;21.70;99.90
42615;DHT22;28754;47.700;7.924;2023-09-30T15:40:56;21.60;99.90
42615;DHT22;28754;47.700;7.924;2023-09-30T15:43:44;21.50;99.90
42615;DHT22;28754;47.700;7.924;2023-09-30T15:46:30;21.60;99.90
42615;DHT22;28754;47.700;7.924;2023-09-30T15:49:17;21.70;99.90
42615;DHT22;28754;47.700;7.924;2023-09-30T15:52:04;21.50;99.90
42615;DHT22;28754;47.700;7.924;2023-09-30T15:54:51;21.70;99.90
42615;DHT22;28754;47.700;7.924;2023-09-30T15:57:38;21.60;99.90
42615;DHT22;28754;47.700;7.924;2023-09-30T16:00:28;21.60;99.90
42615;DHT22;28754;47.700;7.924;2023-09-30T16:03:15;21.60;99.90
42615;DHT22;28754;47.700;7.924;2023-09-30T16:06:13;21.50;99.90
42615;DHT22;28754;47.700;7.924;2023-09-30T16:09:03;21.30;99.90
42615;DHT22;28754;47.700;7.924;2023-09-30T16:11:49;21.00;99.90
42615;DHT22;28754;47.700;7.924;2023-09-30T16:14:36;20.80;99.90
42615;DHT22;28754;47.700;7.924;2023-09-30T16:17:23;20.80;99.90
42615;DHT22;28754;47.700;7.924;2023-09-30T16:20:10;20.60;99.90
42615;DHT22;28754;47.700;7.924;2023-09-30T16:22:57;20.60;99.90
42615;DHT22;28754;47.700;7.924;2023-09-30T16:25:43;20.60;99.90
42615;DHT22;28754;47.700;7.924;2023-09-30T16:28:30;20.50;99.90
42615;DHT22;28754;47.700;7.924;2023-09-30T16:31:17;20.40;99.90
42615;DHT22;28754;47.700;7.924;2023-09-30T16:34:04;20.20;99.90
42615;DHT22;28754;47.700;7.924;2023-09-30T16:36:51;20.10;99.90
42615;DHT22;28754;47.700;7.924;2023-09-30T16:39:37;20.30;99.90
42615;DHT22;28754;47.700;7.924;2023-09-30T16:42:24;20.20;99.90
42615;DHT22;28754;47.700;7.924;2023-09-30T16:45:11;20.20;99.90
42615;DHT22;28754;47.700;7.924;2023-09-30T16:47:58;20.20;99.90
42615;DHT22;28754;47.700;7.924;2023-09-30T16:50:45;20.00;99.90
42615;DHT22;28754;47.700;7.924;2023-09-30T16:53:32;19.90;99.90
42615;DHT22;28754;47.700;7.924;2023-09-30T16:56:19;19.90;99.90
42615;DHT22;28754;47.700;7.924;2023-09-30T16:59:05;19.80;99.90
42615;DHT22;28754;47.700;7.924;2023-09-30T17:01:52;19.70;99.90
42615;DHT22;28754;47.700;7.924;2023-09-30T17:04:43;19.60;99.90
42615;DHT22;28754;47.700;7.924;2023-09-30T17:07:30;19.40;99.90
42615;DHT22;28754;47.700;7.924;2023-09-30T17:10:16;19.20;99.90
42615;DHT22;28754;47.700;7.924;2023-09-30T17:13:03;19.00;99.90
42615;DHT22;28754;47.700;7.924;2023-09-30T17:15:50;19.00;99.90
42615;DHT22;28754;47.700;7.924;2023-09-30T17:18:37;19.10;99.90
42615;DHT22;28754;47.700;7.924;2023-09-30T17:21:23;18.90;99.90
42615;DHT22;28754;47.700;7.924;2023-09-30T17:24:10;18.80;99.90
42615;DHT22;28754;47.700;7.924;2023-09-30T17:26:57;18.80;99.90
42615;DHT22;28754;47.700;7.924;2023-09-30T17:29:44;18.60;99.90
42615;DHT22;28754;47.700;7.924;2023-09-30T17:32:31;18.60;99.90
42615;DHT22;28754;47.700;7.924;2023-09-30T17:35:17;18.50;99.90
42615;DHT22;28754;47.700;7.924;2023-09-30T17:38:04;18.60;99.90
42615;DHT22;28754;47.700;7.924;2023-09-30T17:40:51;18.30;99.90
42615;DHT22;28754;47.700;7.924;2023-09-30T17:43:38;18.10;99.90
42615;DHT22;28754;47.700;7.924;2023-09-30T17:46:25;17.80;99.90
42615;DHT22;28754;47.700;7.924;2023-09-30T17:49:12;18.00;99.90
42615;DHT22;28754;47.700;7.924;2023-09-30T17:51:59;18.20;99.90
42615;DHT22;28754;47.700;7.924;2023-09-30T17:54:45;18.10;99.90